Flight Track Log - Related Links

Times and Time Zones

All times are in EDT time to prevent confusion due to time zone crossing. See the UAL33 flight status page for this flight to view local times or setup timezone preferences in your user account.

Time Position Orientation Groundspeed Altitude Reporting Facility
EDT Latitude Longitude Course Direction KTS MPH feet Rate Location/Type
Fri 09:58:34 PM 41.9810 -87.9120 11° North 20 23  Level FlightAware ADS-B
Fri 09:59:22 PM 41.9810 -87.9130 270° West 10 12 145 Level FlightAware ADS-B
Fri 09:59:50 PM 41.9820 -87.9140 323° Northwest 27 31 157 Level FlightAware ADS-B
Fri 10:00:18 PM 41.9820 -87.9150 270° West 26 30 165 Level FlightAware ADS-B
Fri 10:01:00 PM 41.9830 -87.9170 304° West 14 16 174 Level FlightAware ADS-B
Fri 10:03:00 PM 41.8115 -88.0438 200° South  Level Estimated
Fri 10:04:00 PM 41.7257 -88.1069 187° South  Level Estimated
Fri 10:05:00 PM 41.6399 -88.1699 189° South  Level Estimated
Fri 10:06:00 PM 41.5529 -88.1100 153° Southeast  Level FlightAware Approximate
Fri 10:07:00 PM 41.4673 -88.1735 197° South  Level Estimated
Fri 10:07:46 PM 41.9840 -87.9180 360° North 19 22  Level FlightAware ADS-B
Fri 10:08:14 PM 41.9840 -87.9160 90° East 49 56 1,324 Level FlightAware ADS-B
Fri 10:08:20 PM 41.9840 -87.9130 90° East 88 101 2,250 Level FlightAware ADS-B
Fri 10:08:54 PM 41.9830 -87.8800 92° East 171 197 1,500 2,941 Climbing FlightAware ADS-B
Fri 10:09:11 PM 41.9720 -87.8660 137° Southeast 189 217 2,500 2,897 Climbing FlightAware ADS-B
Fri 10:09:23 PM 41.9620 -87.8630 167° South 210 242 2,900 2,341 Climbing FlightAware ADS-B
Fri 10:09:52 PM 41.9320 -87.8620 179° South 253 291 4,100 2,757 Climbing FlightAware ADS-B
Fri 10:10:00 PM 41.9210 -87.8610 176° South 261 300 4,600 2,400 Climbing FlightAware ADS-B
Fri 10:10:42 PM 41.8950 -87.8620 182° South 271 312 6,100 3,728 Climbing FlightAware ADS-B
Fri 10:11:43 PM 41.7900 -87.8960 194° South 315 362 11,000 4,442 Climbing FlightAware ADS-B
Fri 10:12:26 PM 41.7270 -87.9180 195° South 323 372 13,800 3,000 Climbing FlightAware ADS-B
Fri 10:13:05 PM 41.6670 -87.9390 195° South 363 418 15,100 2,415 Climbing FlightAware ADS-B
Fri 10:13:48 PM 41.5960 -87.9640 195° South 388 447 17,100 2,897 Climbing FlightAware ADS-B
Fri 10:14:32 PM 41.5160 -87.9920 195° South 406 467 19,300 2,846 Climbing FlightAware ADS-B
Fri 10:15:06 PM 41.4530 -88.0140 195° South 418 481 20,800 2,500 Climbing FlightAware ADS-B
Fri 10:15:56 PM 41.3580 -88.0460 194° South 430 495 22,800 2,000 Climbing FlightAware ADS-B
Fri 10:16:36 PM 41.2800 -88.0730 195° South 439 505 23,800 1,929 Climbing FlightAware ADS-B
Fri 10:17:20 PM 41.1910 -88.1010 193° South 454 522 25,500 2,143 Climbing FlightAware ADS-B
Fri 10:18:00 PM 41.1070 -88.1240 192° South 473 544 26,800 2,071 Climbing FlightAware ADS-B
Fri 10:18:44 PM 41.0130 -88.1510 192° South 482 555 28,400 1,929 Climbing FlightAware ADS-B
Fri 10:19:24 PM 40.9230 -88.1770 192° South 497 572 29,500 1,735 Climbing FlightAware ADS-B
Fri 10:20:07 PM 40.8280 -88.2220 200° South 500 575 30,800 1,571 Climbing FlightAware ADS-B
Fri 10:20:48 PM 40.7710 -88.2620 208° Southwest 499 574 31,700 1,857 Climbing FlightAware ADS-B
Fri 10:21:31 PM 40.6580 -88.3480 210° Southwest 505 581 33,400 2,047 Climbing FlightAware ADS-B
Fri 10:22:13 PM 40.5740 -88.4120 210° Southwest 508 585 34,600 1,553 Climbing FlightAware ADS-B
Fri 10:22:56 PM 40.4890 -88.4770 210° Southwest 513 590 35,600 1,663 Climbing FlightAware ADS-B
Fri 10:23:36 PM 40.4050 -88.5410 210° Southwest 505 581 36,900 1,906 Climbing FlightAware ADS-B
Fri 10:24:21 PM 40.3140 -88.6060 209° Southwest 499 574 38,300 1,714 Climbing FlightAware ADS-B
Fri 10:25:00 PM 40.2340 -88.6600 207° Southwest 494 568 39,300 990 Climbing FlightAware ADS-B
Fri 10:26:04 PM 40.1050 -88.7480 208° Southwest 489 563 40,000 396 Climbing FlightAware ADS-B
Fri 10:26:46 PM 40.0240 -88.8040 208° Southwest 485 558 40,000  Level FlightAware ADS-B
Fri 10:27:30 PM 39.9350 -88.8650 208° Southwest 481 554 40,000  Level FlightAware ADS-B
Fri 10:28:06 PM 39.8650 -88.9130 208° Southwest 481 554 40,000  Level FlightAware ADS-B
Fri 10:28:53 PM 39.7710 -88.9770 208° Southwest 480 552 40,000  Level FlightAware ADS-B
Fri 10:29:33 PM 39.6910 -89.0310 207° Southwest 477 549 40,000  Level FlightAware ADS-B
Fri 10:30:13 PM 39.6140 -89.0840 208° Southwest 476 548 40,000  Level FlightAware ADS-B
Fri 10:30:57 PM 39.5290 -89.1410 207° Southwest 478 550 40,000  Level FlightAware ADS-B
Fri 10:31:40 PM 39.4450 -89.1970 207° Southwest 476 548 40,000  Level FlightAware ADS-B
Fri 10:32:21 PM 39.3660 -89.2510 208° Southwest 472 543 40,000  Level FlightAware ADS-B
Fri 10:33:05 PM 39.2800 -89.3080 207° Southwest 471 542 40,000  Level FlightAware ADS-B
Fri 10:33:46 PM 39.2010 -89.3610 207° Southwest 470 541 40,000  Level FlightAware ADS-B
Fri 10:34:21 PM 39.1320 -89.4070 207° Southwest 466 536 40,000  Level FlightAware ADS-B
Fri 10:35:10 PM 39.0380 -89.4700 208° Southwest 465 535 40,000  Level FlightAware ADS-B
Fri 10:36:00 PM 38.9540 -89.5250 207° Southwest 465 535 40,000  Level FlightAware ADS-B
Fri 10:36:47 PM 38.8560 -89.5900 207° Southwest 464 534 40,000  Level FlightAware ADS-B
Fri 10:37:31 PM 38.7680 -89.6480 207° Southwest 463 533 40,000  Level FlightAware ADS-B
Fri 10:38:11 PM 38.6920 -89.6980 207° Southwest 465 535 40,000  Level FlightAware ADS-B
Fri 10:38:53 PM 38.6240 -89.7430 207° Southwest 465 535 40,000  Level FlightAware ADS-B
Fri 10:39:33 PM 38.5370 -89.8000 207° Southwest 464 534 40,000  Level FlightAware ADS-B
Fri 10:40:19 PM 38.4480 -89.8580 207° Southwest 461 531 40,000  Level FlightAware ADS-B
Fri 10:41:57 PM 38.2700 -89.9730 207° Southwest 463 533 40,000  Level FlightAware ADS-B
Fri 10:42:37 PM 38.1870 -90.0270 207° Southwest 463 533 40,000  Level FlightAware ADS-B
Fri 10:43:18 PM 38.1210 -90.0700 207° Southwest 463 533 40,000  Level FlightAware ADS-B
Fri 10:43:55 PM 38.0370 -90.1240 207° Southwest 463 533 40,000  Level FlightAware ADS-B
Fri 10:44:43 PM 37.9450 -90.1830 207° Southwest 462 532 40,000  Level FlightAware ADS-B
Fri 10:45:25 PM 37.8720 -90.2290 206° Southwest 462 532 40,000  Level FlightAware ADS-B
Fri 10:46:01 PM 37.8140 -90.2670 207° Southwest 462 532 40,000  Level FlightAware ADS-B
Fri 10:46:50 PM 37.7350 -90.3180 207° Southwest 462 532 40,000  Level FlightAware ADS-B
Fri 10:47:27 PM 37.6750 -90.3570 207° Southwest 462 532 40,000  Level FlightAware ADS-B
Fri 10:48:13 PM 37.6000 -90.4050 207° Southwest 462 532 40,000  Level FlightAware ADS-B
Fri 10:48:49 PM 37.5420 -90.4420 207° Southwest 462 532 40,000  Level FlightAware ADS-B
Fri 10:49:40 PM 37.3890 -90.5360 206° Southwest 448 516 40,000  Level FlightAware ADS-B
Fri 10:50:35 PM 37.2860 -90.6010 207° Southwest 446 513 40,000  Level FlightAware ADS-B
Fri 10:51:15 PM 37.2130 -90.6470 207° Southwest 444 511 40,000  Level FlightAware ADS-B
Fri 10:51:59 PM 37.1320 -90.6980 207° Southwest 443 510 40,000  Level FlightAware ADS-B
Fri 10:52:39 PM 37.0570 -90.7450 207° Southwest 441 507 40,000  Level FlightAware ADS-B
Fri 10:53:22 PM 36.9800 -90.7930 206° Southwest 441 507 40,000  Level FlightAware ADS-B
Fri 10:54:03 PM 36.9040 -90.8400 206° Southwest 443 510 40,000  Level FlightAware ADS-B
Fri 10:54:47 PM 36.8230 -90.8900 206° Southwest 446 513 40,000  Level FlightAware ADS-B
Fri 10:55:25 PM 36.7540 -90.9330 207° Southwest 446 513 40,000  Level FlightAware ADS-B
Fri 10:56:12 PM 36.6680 -90.9860 206° Southwest 449 517 40,000  Level FlightAware ADS-B
Fri 10:56:51 PM 36.5940 -91.0320 207° Southwest 450 518 40,000  Level FlightAware ADS-B
Fri 10:57:37 PM 36.5060 -91.0860 206° Southwest 449 517 40,000  Level FlightAware ADS-B
Fri 10:58:18 PM 36.4310 -91.1320 206° Southwest 450 518 40,000  Level FlightAware ADS-B
Fri 10:58:57 PM 36.3570 -91.1770 206° Southwest 450 518 40,000  Level FlightAware ADS-B
Fri 10:59:41 PM 36.2780 -91.2250 206° Southwest 449 517 40,000  Level FlightAware ADS-B
Fri 11:00:05 PM 36.2310 -91.2540 206° Southwest 448 516 40,000  Level FlightAware ADS-B
Fri 11:00:53 PM 36.1450 -91.3070 206° Southwest 449 517 40,000  Level FlightAware ADS-B
Fri 11:01:41 PM 36.0520 -91.3630 206° Southwest 451 519 40,000  Level FlightAware ADS-B
Fri 11:02:27 PM 35.9650 -91.4160 206° Southwest 449 517 40,000  Level FlightAware ADS-B
Fri 11:03:07 PM 35.8910 -91.4600 206° Southwest 447 514 40,000  Level FlightAware ADS-B
Fri 11:03:49 PM 35.8130 -91.5070 206° Southwest 449 517 40,000  Level FlightAware ADS-B
Fri 11:04:29 PM 35.7370 -91.5530 206° Southwest 448 516 40,000  Level FlightAware ADS-B
Fri 11:05:13 PM 35.6570 -91.6010 206° Southwest 448 516 40,000  Level FlightAware ADS-B
Fri 11:05:57 PM 35.5870 -91.6430 206° Southwest 448 516 40,000  Level FlightAware ADS-B
Fri 11:06:35 PM 35.5020 -91.6940 206° Southwest 447 514 40,000  Level FlightAware ADS-B
Fri 11:07:13 PM 35.4400 -91.7300 205° Southwest 448 516 40,000  Level FlightAware ADS-B
Fri 11:08:02 PM 35.3610 -91.7750 205° Southwest 448 516 40,000  Level FlightAware ADS-B
Fri 11:08:38 PM 35.3040 -91.8080 205° Southwest 448 516 40,000  Level FlightAware ADS-B
Fri 11:09:25 PM 35.1870 -91.8810 207° Southwest 448 516 40,000  Level FlightAware ADS-B
Fri 11:10:06 PM 35.1190 -91.9200 205° Southwest 447 514 40,000  Level FlightAware ADS-B
Fri 11:10:18 PM 35.1000 -91.9310 205° Southwest 447 514 40,000  Level FlightAware ADS-B
Fri 11:11:58 PM 34.9150 -92.0040 198° South 456 525 40,000  Level FlightAware ADS-B
Fri 11:12:46 PM 34.8330 -92.0360 198° South 456 525 40,000  Level FlightAware ADS-B
Fri 11:13:23 PM 34.7700 -92.0610 198° South 456 525 40,000  Level FlightAware ADS-B
Fri 11:14:11 PM 34.6890 -92.0930 198° South 456 525 40,000  Level FlightAware ADS-B
Fri 11:14:48 PM 34.6250 -92.1180 198° South 456 525 40,000  Level FlightAware ADS-B
Fri 11:15:38 PM 34.5400 -92.1520 198° South 456 525 40,000  Level FlightAware ADS-B
Fri 11:16:14 PM 34.4790 -92.1760 198° South 456 525 40,000  Level FlightAware ADS-B
Fri 11:17:03 PM 34.3950 -92.2090 198° South 456 525 40,000  Level FlightAware ADS-B
Fri 11:17:39 PM 34.3340 -92.2330 198° South 456 525 40,000  Level FlightAware ADS-B
Fri 11:18:16 PM 34.2710 -92.2580 198° South 456 525 40,000  Level FlightAware ADS-B
Fri 11:19:05 PM 34.1870 -92.2910 198° South 456 525 40,000  Level FlightAware ADS-B
Fri 11:19:41 PM 34.1260 -92.3150 198° South 456 525 40,000  Level FlightAware ADS-B
Fri 11:20:49 PM 33.7775 -92.2586 198° South 442 509 40,000  Level Fort Worth Center
Fri 11:21:49 PM 33.6492 -92.2861 190° South 462 532 40,000  Level Fort Worth Center
Fri 11:22:49 PM 33.5231 -92.3158 191° South 467 537 40,000  Level Fort Worth Center
Fri 11:23:49 PM 33.3969 -92.3456 191° South 467 537 40,000  Level Fort Worth Center
Fri 11:24:49 PM 33.2689 -92.3753 191° South 467 537 40,000  Level Fort Worth Center
Fri 11:25:49 PM 33.1469 -92.4044 191° South 467 537 40,000  Level Fort Worth Center
Fri 11:26:49 PM 33.0186 -92.4314 190° South 472 543 40,000  Level Fort Worth Center
Fri 11:27:49 PM 32.8925 -92.4633 192° South 465 535 40,000 -31 Level Fort Worth Center
Fri 11:30:05 PM 32.6000 -92.5311 191° South 461 531 39,900 -30 Descending Houston Center
Fri 11:31:06 PM 32.4739 -92.5617 192° South 461 531 39,900  Level Houston Center
Fri 11:32:07 PM 32.3472 -92.5911 191° South 462 532 39,900  Level Houston Center
Fri 11:33:08 PM 32.2200 -92.6194 191° South 464 534 39,900  Level Houston Center
Fri 11:34:09 PM 32.0931 -92.6494 191° South 464 534 39,900 49 Level Houston Center
Fri 11:35:10 PM 31.9661 -92.6792 191° South 464 534 40,000 -344 Climbing Houston Center
Fri 11:36:11 PM 31.8406 -92.7083 191° South 460 529 39,200 -1,475 Descending Houston Center
Fri 11:37:12 PM 31.6883 -92.7500 193° South 467 537 37,000 -1,918 Descending Houston Center
Fri 11:38:13 PM 31.5589 -92.7897 195° South 477 549 35,300 -1,328 Descending Houston Center
Fri 11:39:14 PM 31.4300 -92.8275 194° South 479 551 34,300 -689 Descending Houston Center
Fri 11:40:15 PM 31.3075 -92.8775 199° South 470 541 33,900 -248 Descending Houston Center
Fri 11:41:15 PM 31.2211 -92.9839 226° Southwest 453 521 33,800 -595 Descending Houston Center
Fri 11:42:16 PM 31.1378 -93.0936 228° Southwest 452 520 32,700 -984 Descending Houston Center
Fri 11:43:17 PM 31.0581 -93.2031 230° Southwest 447 514 31,800 -885 Descending Houston Center
Fri 11:44:18 PM 30.9794 -93.3119 230° Southwest 443 510 30,900 -1,230 Descending Houston Center
Fri 11:45:19 PM 30.9008 -93.4189 229° Southwest 439 505 29,300 -1,682 Descending Houston Center
Fri 11:56:40 PM 30.1820 -94.5220 229° Southwest 333 383 10,100 -1,612 Descending FlightAware ADS-B
Fri 11:57:25 PM 30.1550 -94.5850 244° Southwest 334 384 9,800 -222 Descending FlightAware ADS-B
Fri 11:58:01 PM 30.1330 -94.6330 243° Southwest 334 384 9,800  Level FlightAware ADS-B
Fri 11:58:35 PM 30.1130 -94.6790 243° Southwest 334 384 9,800 -1,673 Level FlightAware ADS-B
Sat 12:00:46 AM 30.0360 -94.8630 244° Southwest 275 316 5,200 -1,844 Descending FlightAware ADS-B
Sat 12:01:34 AM 30.0080 -94.9270 247° West 270 311 4,300 -981 Descending FlightAware ADS-B
Sat 12:02:30 AM 29.9890 -95.0010 256° West 260 299 3,500 -667 Descending FlightAware ADS-B
Sat 12:03:49 AM 29.9780 -95.1050 270° West 233 268 2,800 -622 Descending FlightAware ADS-B
Sat 12:04:45 AM 29.9780 -95.1700 270° West 210 242 2,100 -840 Descending FlightAware ADS-B
Sat 12:05:29 AM 29.9780 -95.2130 270° West 170 196 1,400 -892 Descending FlightAware ADS-B
Sat 12:05:59 AM 29.9780 -95.2380 270° West 151 174 1,000 -429 Descending FlightAware ADS-B
Sat 12:06:25 AM 29.9780 -95.2560 270° West 151 174 1,000  Level FlightAware ADS-B

Login

Don't have an account? Register now (free) for customized features, flight alerts, and more!